sensor_id;sensor_type;location;lat;lon;timestamp;temperature;humidity
23685;DHT22;12020;51.384;6.908;2022-10-16T09:33:11;18.90;99.90
23685;DHT22;12020;51.384;6.908;2022-10-16T09:53:48;19.70;99.90
23685;DHT22;12020;51.384;6.908;2022-10-16T09:56:48;19.70;99.90
23685;DHT22;12020;51.384;6.908;2022-10-16T10:13:21;20.50;99.90
23685;DHT22;12020;51.384;6.908;2022-10-16T10:22:57;20.80;99.90
23685;DHT22;12020;51.384;6.908;2022-10-16T10:53:12;21.00;99.90
23685;DHT22;12020;51.384;6.908;2022-10-16T11:08:08;21.10;99.90
23685;DHT22;12020;51.384;6.908;2022-10-16T11:26:47;20.90;99.90
23685;DHT22;12020;51.384;6.908;2022-10-16T11:37:05;20.70;99.90
23685;DHT22;12020;51.384;6.908;2022-10-16T11:43:26;20.50;99.90
23685;DHT22;12020;51.384;6.908;2022-10-16T11:46:04;20.50;99.90
23685;DHT22;12020;51.384;6.908;2022-10-16T11:49:00;20.50;99.90
23685;DHT22;12020;51.384;6.908;2022-10-16T11:57:52;20.40;99.90
23685;DHT22;12020;51.384;6.908;2022-10-16T12:01:38;20.50;99.90
23685;DHT22;12020;51.384;6.908;2022-10-16T12:05:23;20.50;99.90
23685;DHT22;12020;51.384;6.908;2022-10-16T12:08:12;20.50;99.90
23685;DHT22;12020;51.384;6.908;2022-10-16T12:18:02;20.40;99.90
23685;DHT22;12020;51.384;6.908;2022-10-16T12:24:00;20.20;99.90
23685;DHT22;12020;51.384;6.908;2022-10-16T12:27:36;20.30;99.90
23685;DHT22;12020;51.384;6.908;2022-10-16T12:33:59;20.30;99.90
23685;DHT22;12020;51.384;6.908;2022-10-16T12:37:33;20.30;99.90
23685;DHT22;12020;51.384;6.908;2022-10-16T12:44:46;20.30;99.90
23685;DHT22;12020;51.384;6.908;2022-10-16T12:52:00;20.10;99.90
23685;DHT22;12020;51.384;6.908;2022-10-16T13:12:21;20.00;99.90
23685;DHT22;12020;51.384;6.908;2022-10-16T13:15:53;20.00;99.90
23685;DHT22;12020;51.384;6.908;2022-10-16T13:23:01;20.00;99.90
23685;DHT22;12020;51.384;6.908;2022-10-16T13:33:04;19.80;99.90
23685;DHT22;12020;51.384;6.908;2022-10-16T13:36:35;19.70;99.90
23685;DHT22;12020;51.384;6.908;2022-10-16T13:56:32;19.80;99.90
23685;DHT22;12020;51.384;6.908;2022-10-16T14:00:18;19.80;99.90
23685;DHT22;12020;51.384;6.908;2022-10-16T16:23:04;18.10;99.90
23685;DHT22;12020;51.384;6.908;2022-10-16T16:25:40;18.10;99.90
23685;DHT22;12020;51.384;6.908;2022-10-16T16:31:38;18.00;99.90
23685;DHT22;12020;51.384;6.908;2022-10-16T16:34:27;17.90;99.90
23685;DHT22;12020;51.384;6.908;2022-10-16T16:36:55;17.90;99.90
23685;DHT22;12020;51.384;6.908;2022-10-16T16:39:36;17.80;99.90
23685;DHT22;12020;51.384;6.908;2022-10-16T16:42:03;17.70;99.90
23685;DHT22;12020;51.384;6.908;2022-10-16T16:44:30;17.70;99.90
23685;DHT22;12020;51.384;6.908;2022-10-16T16:46:56;17.70;99.90
23685;DHT22;12020;51.384;6.908;2022-10-16T16:49:22;17.60;99.90
23685;DHT22;12020;51.384;6.908;2022-10-16T16:51:51;17.60;99.90
23685;DHT22;12020;51.384;6.908;2022-10-16T16:54:18;17.60;99.90
23685;DHT22;12020;51.384;6.908;2022-10-16T16:56:44;17.60;99.90
23685;DHT22;12020;51.384;6.908;2022-10-16T16:59:18;17.50;99.90
23685;DHT22;12020;51.384;6.908;2022-10-16T17:01:45;17.50;99.90
23685;DHT22;12020;51.384;6.908;2022-10-16T17:06:58;17.40;99.90
23685;DHT22;12020;51.384;6.908;2022-10-16T17:09:24;17.50;99.90
23685;DHT22;12020;51.384;6.908;2022-10-16T17:11:50;17.40;99.90
23685;DHT22;12020;51.384;6.908;2022-10-16T17:14:20;17.40;99.90
23685;DHT22;12020;51.384;6.908;2022-10-16T17:16:46;17.40;99.90
23685;DHT22;12020;51.384;6.908;2022-10-16T17:19:25;17.30;99.90
23685;DHT22;12020;51.384;6.908;2022-10-16T17:21:54;17.30;99.90
23685;DHT22;12020;51.384;6.908;2022-10-16T17:24:21;17.30;99.90
23685;DHT22;12020;51.384;6.908;2022-10-16T17:26:48;17.20;99.90
23685;DHT22;12020;51.384;6.908;2022-10-16T17:29:16;17.10;99.90
23685;DHT22;12020;51.384;6.908;2022-10-16T17:31:51;17.10;99.90
23685;DHT22;12020;51.384;6.908;2022-10-16T17:34:20;17.00;99.90
23685;DHT22;12020;51.384;6.908;2022-10-16T17:36:48;17.00;99.90
23685;DHT22;12020;51.384;6.908;2022-10-16T17:39:15;17.00;99.90
23685;DHT22;12020;51.384;6.908;2022-10-16T17:41:43;16.90;99.90
23685;DHT22;12020;51.384;6.908;2022-10-16T17:44:12;16.90;99.90
23685;DHT22;12020;51.384;6.908;2022-10-16T17:46:52;16.90;99.90
23685;DHT22;12020;51.384;6.908;2022-10-16T17:49:18;16.90;99.90
23685;DHT22;12020;51.384;6.908;2022-10-16T17:51:44;16.90;99.90
23685;DHT22;12020;51.384;6.908;2022-10-16T17:54:11;16.90;99.90
23685;DHT22;12020;51.384;6.908;2022-10-16T17:56:44;16.90;99.90
23685;DHT22;12020;51.384;6.908;2022-10-16T17:59:13;16.80;99.90
23685;DHT22;12020;51.384;6.908;2022-10-16T18:01:40;16.80;99.90
23685;DHT22;12020;51.384;6.908;2022-10-16T18:04:19;16.90;99.90
23685;DHT22;12020;51.384;6.908;2022-10-16T18:06:46;16.90;99.90
23685;DHT22;12020;51.384;6.908;2022-10-16T18:09:14;16.80;99.90
23685;DHT22;12020;51.384;6.908;2022-10-16T18:11:43;16.90;99.90
23685;DHT22;12020;51.384;6.908;2022-10-16T18:14:14;16.80;99.90
23685;DHT22;12020;51.384;6.908;2022-10-16T18:16:42;16.80;99.90
23685;DHT22;12020;51.384;6.908;2022-10-16T18:19:11;16.80;99.90
23685;DHT22;12020;51.384;6.908;2022-10-16T18:21:37;16.70;99.90
23685;DHT22;12020;51.384;6.908;2022-10-16T18:24:08;16.70;99.90
23685;DHT22;12020;51.384;6.908;2022-10-16T18:26:39;16.70;99.90
23685;DHT22;12020;51.384;6.908;2022-10-16T18:29:05;16.60;99.90
23685;DHT22;12020;51.384;6.908;2022-10-16T18:31:33;16.60;99.90
23685;DHT22;12020;51.384;6.908;2022-10-16T18:34:29;16.60;99.90
23685;DHT22;12020;51.384;6.908;2022-10-16T18:37:31;16.60;99.90
23685;DHT22;12020;51.384;6.908;2022-10-16T18:40:09;16.60;99.90
23685;DHT22;12020;51.384;6.908;2022-10-16T18:43:27;16.50;99.90
23685;DHT22;12020;51.384;6.908;2022-10-16T18:49:12;16.60;99.90
23685;DHT22;12020;51.384;6.908;2022-10-16T18:54:55;16.60;99.90
23685;DHT22;12020;51.384;6.908;2022-10-16T18:58:16;16.50;99.90
23685;DHT22;12020;51.384;6.908;2022-10-16T19:06:55;16.50;99.90
23685;DHT22;12020;51.384;6.908;2022-10-16T19:13:41;16.50;99.90
23685;DHT22;12020;51.384;6.908;2022-10-16T19:19:32;16.50;99.90
23685;DHT22;12020;51.384;6.908;2022-10-16T19:26:07;16.40;99.90
23685;DHT22;12020;51.384;6.908;2022-10-16T19:29:55;16.40;99.90
23685;DHT22;12020;51.384;6.908;2022-10-16T19:40:43;16.50;99.90
23685;DHT22;12020;51.384;6.908;2022-10-16T19:49:33;16.50;99.90
23685;DHT22;12020;51.384;6.908;2022-10-16T19:55:52;16.50;99.90
23685;DHT22;12020;51.384;6.908;2022-10-16T19:59:28;16.50;99.90
23685;DHT22;12020;51.384;6.908;2022-10-16T20:02:39;16.60;99.90
23685;DHT22;12020;51.384;6.908;2022-10-16T20:08:30;16.50;99.90
23685;DHT22;12020;51.384;6.908;2022-10-16T20:11:19;16.50;99.90
23685;DHT22;12020;51.384;6.908;2022-10-16T20:27:08;16.60;99.90
23685;DHT22;12020;51.384;6.908;2022-10-16T20:32:17;16.50;99.90
23685;DHT22;12020;51.384;6.908;2022-10-16T20:34:43;16.50;99.90
23685;DHT22;12020;51.384;6.908;2022-10-16T20:37:16;16.50;99.90
23685;DHT22;12020;51.384;6.908;2022-10-16T20:39:42;16.40;99.90
23685;DHT22;12020;51.384;6.908;2022-10-16T20:42:07;16.30;99.90
23685;DHT22;12020;51.384;6.908;2022-10-16T20:44:34;16.20;99.90
23685;DHT22;12020;51.384;6.908;2022-10-16T20:47:00;16.20;99.90
23685;DHT22;12020;51.384;6.908;2022-10-16T20:49:27;16.20;99.90
23685;DHT22;12020;51.384;6.908;2022-10-16T20:51:55;16.10;99.90
23685;DHT22;12020;51.384;6.908;2022-10-16T20:54:21;16.10;99.90
23685;DHT22;12020;51.384;6.908;2022-10-16T20:56:46;16.10;99.90
23685;DHT22;12020;51.384;6.908;2022-10-16T20:59:12;16.10;99.90
23685;DHT22;12020;51.384;6.908;2022-10-16T21:01:38;16.10;99.90
23685;DHT22;12020;51.384;6.908;2022-10-16T21:04:07;16.10;99.90
23685;DHT22;12020;51.384;6.908;2022-10-16T21:06:36;16.10;99.90
23685;DHT22;12020;51.384;6.908;2022-10-16T21:09:03;16.00;99.90
23685;DHT22;12020;51.384;6.908;2022-10-16T21:11:32;16.00;99.90
23685;DHT22;12020;51.384;6.908;2022-10-16T21:14:00;16.00;99.90
23685;DHT22;12020;51.384;6.908;2022-10-16T21:16:26;16.00;99.90
23685;DHT22;12020;51.384;6.908;2022-10-16T21:18:52;16.00;99.90
23685;DHT22;12020;51.384;6.908;2022-10-16T21:21:23;16.10;99.90
23685;DHT22;12020;51.384;6.908;2022-10-16T21:23:50;16.10;99.90
23685;DHT22;12020;51.384;6.908;2022-10-16T21:26:17;16.00;99.90
23685;DHT22;12020;51.384;6.908;2022-10-16T21:28:45;16.10;99.90
23685;DHT22;12020;51.384;6.908;2022-10-16T21:31:17;16.00;99.90
23685;DHT22;12020;51.384;6.908;2022-10-16T21:33:48;16.00;99.90
23685;DHT22;12020;51.384;6.908;2022-10-16T21:36:19;16.00;99.90
23685;DHT22;12020;51.384;6.908;2022-10-16T21:38:45;16.00;99.90
23685;DHT22;12020;51.384;6.908;2022-10-16T21:43:41;16.00;99.90
23685;DHT22;12020;51.384;6.908;2022-10-16T21:46:06;16.00;99.90
23685;DHT22;12020;51.384;6.908;2022-10-16T21:48:32;16.00;99.90
23685;DHT22;12020;51.384;6.908;2022-10-16T21:50:58;15.90;99.90
23685;DHT22;12020;51.384;6.908;2022-10-16T21:53:23;15.90;99.90
23685;DHT22;12020;51.384;6.908;2022-10-16T21:55:50;15.90;99.90
23685;DHT22;12020;51.384;6.908;2022-10-16T21:58:15;15.90;99.90
23685;DHT22;12020;51.384;6.908;2022-10-16T22:00:41;15.90;99.90
23685;DHT22;12020;51.384;6.908;2022-10-16T22:03:07;15.90;99.90
23685;DHT22;12020;51.384;6.908;2022-10-16T22:05:33;15.90;99.90
23685;DHT22;12020;51.384;6.908;2022-10-16T22:07:59;15.90;99.90
23685;DHT22;12020;51.384;6.908;2022-10-16T22:10:25;15.80;99.90
23685;DHT22;12020;51.384;6.908;2022-10-16T22:12:50;15.80;99.90
23685;DHT22;12020;51.384;6.908;2022-10-16T22:15:16;15.80;99.90
23685;DHT22;12020;51.384;6.908;2022-10-16T22:17:41;15.80;99.90
23685;DHT22;12020;51.384;6.908;2022-10-16T22:20:08;15.80;99.90
23685;DHT22;12020;51.384;6.908;2022-10-16T22:22:34;15.80;99.90
23685;DHT22;12020;51.384;6.908;2022-10-16T22:24:59;15.70;99.90
23685;DHT22;12020;51.384;6.908;2022-10-16T22:27:25;15.70;99.90
23685;DHT22;12020;51.384;6.908;2022-10-16T22:29:51;15.70;99.90
23685;DHT22;12020;51.384;6.908;2022-10-16T22:32:18;15.70;99.90
23685;DHT22;12020;51.384;6.908;2022-10-16T22:34:44;15.60;99.90
23685;DHT22;12020;51.384;6.908;2022-10-16T22:37:09;15.60;99.90
23685;DHT22;12020;51.384;6.908;2022-10-16T22:39:35;15.50;99.90
23685;DHT22;12020;51.384;6.908;2022-10-16T22:42:01;15.50;99.90
23685;DHT22;12020;51.384;6.908;2022-10-16T22:44:28;15.50;99.90
23685;DHT22;12020;51.384;6.908;2022-10-16T22:46:55;15.50;99.90
23685;DHT22;12020;51.384;6.908;2022-10-16T22:49:21;15.40;99.90
23685;DHT22;12020;51.384;6.908;2022-10-16T22:51:47;15.40;99.90
23685;DHT22;12020;51.384;6.908;2022-10-16T22:54:13;15.40;99.90
23685;DHT22;12020;51.384;6.908;2022-10-16T22:56:38;15.40;99.90
23685;DHT22;12020;51.384;6.908;2022-10-16T22:59:08;15.40;99.90
23685;DHT22;12020;51.384;6.908;2022-10-16T23:01:37;15.40;99.90
23685;DHT22;12020;51.384;6.908;2022-10-16T23:04:03;15.40;99.90
23685;DHT22;12020;51.384;6.908;2022-10-16T23:06:30;15.40;99.90
23685;DHT22;12020;51.384;6.908;2022-10-16T23:08:57;15.40;99.90
23685;DHT22;12020;51.384;6.908;2022-10-16T23:11:24;15.40;99.90
23685;DHT22;12020;51.384;6.908;2022-10-16T23:13:50;15.40;99.90
23685;DHT22;12020;51.384;6.908;2022-10-16T23:16:18;15.40;99.90
23685;DHT22;12020;51.384;6.908;2022-10-16T23:18:44;15.40;99.90
23685;DHT22;12020;51.384;6.908;2022-10-16T23:21:13;15.40;99.90
23685;DHT22;12020;51.384;6.908;2022-10-16T23:23:40;15.40;99.90
23685;DHT22;12020;51.384;6.908;2022-10-16T23:26:13;15.40;99.90
23685;DHT22;12020;51.384;6.908;2022-10-16T23:28:39;15.40;99.90
23685;DHT22;12020;51.384;6.908;2022-10-16T23:31:06;15.40;99.90
23685;DHT22;12020;51.384;6.908;2022-10-16T23:33:33;15.40;99.90
23685;DHT22;12020;51.384;6.908;2022-10-16T23:36:03;15.40;99.90
23685;DHT22;12020;51.384;6.908;2022-10-16T23:38:30;15.40;99.90
23685;DHT22;12020;51.384;6.908;2022-10-16T23:40:56;15.40;99.90
23685;DHT22;12020;51.384;6.908;2022-10-16T23:43:21;15.40;99.90
23685;DHT22;12020;51.384;6.908;2022-10-16T23:45:47;15.50;99.90
23685;DHT22;12020;51.384;6.908;2022-10-16T23:48:12;15.50;99.90
23685;DHT22;12020;51.384;6.908;2022-10-16T23:50:38;15.50;99.90
23685;DHT22;12020;51.384;6.908;2022-10-16T23:53:04;15.50;99.90
23685;DHT22;12020;51.384;6.908;2022-10-16T23:55:29;15.50;99.90
23685;DHT22;12020;51.384;6.908;2022-10-16T23:57:55;15.50;99.90
